Time;durP1;ratioP1;P1;durP2;ratioP2;P2;SDS_P1;SDS_P2;PMS_P1;PMS_P2;Temp;Humidity;BMP_temperature;BMP_pressure;BME280_temperature;BME280_humidity;BME280_pressure;Samples;Min_cycle;Max_cycle;Signal;HPM_P1;HPM_P2
2021/01/25 00:01:48;;;;;;;2.30;1.05;;;0.20;94.30;;;;;;5006221;28;20604;-74
2021/01/25 00:04:13;;;;;;;3.63;1.67;;;0.20;93.90;;;;;;5009473;28;20627;-74
2021/01/25 00:06:39;;;;;;;2.83;1.33;;;0.20;94.00;;;;;;5000094;28;20030;-74
2021/01/25 00:09:05;;;;;;;3.95;1.55;;;0.10;94.10;;;;;;5004207;28;20080;-74
2021/01/25 00:11:31;;;;;;;3.75;1.85;;;0.20;93.90;;;;;;5009153;28;20126;-74
2021/01/25 00:13:56;;;;;;;1.65;0.85;;;0.10;94.20;;;;;;5009377;28;20104;-74
2021/01/25 00:16:22;;;;;;;4.57;1.27;;;0.20;93.30;;;;;;5009759;28;20038;-74
2021/01/25 00:18:48;;;;;;;2.35;1.15;;;0.30;93.80;;;;;;5009354;28;20092;-74
2021/01/25 00:21:14;;;;;;;4.53;1.73;;;0.00;95.20;;;;;;5009225;28;20029;-74
2021/01/25 00:23:39;;;;;;;5.03;1.20;;;-0.10;94.80;;;;;;5008419;28;20129;-74
2021/01/25 00:26:05;;;;;;;3.75;1.58;;;0.00;94.00;;;;;;4993772;28;20026;-74
2021/01/25 00:28:31;;;;;;;6.05;1.60;;;-0.10;94.60;;;;;;5009360;28;20113;-74
2021/01/25 00:30:56;;;;;;;2.42;1.08;;;-0.10;95.20;;;;;;5007241;28;20042;-74
2021/01/25 00:33:22;;;;;;;5.45;2.25;;;-0.30;95.90;;;;;;5011271;28;20033;-74
2021/01/25 00:35:48;;;;;;;1.92;0.95;;;-0.30;96.00;;;;;;5012929;28;20042;-75
2021/01/25 00:38:14;;;;;;;2.10;1.00;;;-0.30;96.20;;;;;;5012955;28;20030;-75
2021/01/25 00:40:40;;;;;;;2.43;1.53;;;-0.40;96.70;;;;;;5012710;28;20030;-74
2021/01/25 00:43:06;;;;;;;2.83;1.02;;;-0.40;97.20;;;;;;5012287;28;20038;-74
2021/01/25 00:45:32;;;;;;;2.58;0.90;;;-0.40;97.20;;;;;;5012980;28;20044;-74
2021/01/25 00:47:58;;;;;;;2.87;1.00;;;-0.40;97.10;;;;;;5012987;28;20384;-74
2021/01/25 00:50:23;;;;;;;4.13;1.50;;;-0.40;97.10;;;;;;5012925;28;20495;-74
2021/01/25 00:52:50;;;;;;;3.63;1.20;;;-0.30;96.00;;;;;;5012548;28;20033;-74
2021/01/25 00:55:16;;;;;;;3.42;1.08;;;-0.30;96.10;;;;;;5012529;28;20036;-74
2021/01/25 00:57:42;;;;;;;3.38;1.27;;;-0.50;97.00;;;;;;5013182;28;20159;-74
2021/01/25 01:00:10;;;;;;;2.47;1.02;;;-0.50;96.40;;;;;;5012499;28;20034;-73
2021/01/25 01:02:36;;;;;;;3.92;1.17;;;-0.40;96.50;;;;;;5011835;28;20184;-74
2021/01/25 01:05:03;;;;;;;2.90;0.95;;;-0.50;96.90;;;;;;5012428;28;20042;-73
2021/01/25 01:07:29;;;;;;;5.70;1.27;;;-0.60;97.10;;;;;;5012345;28;20053;-73
2021/01/25 01:09:55;;;;;;;4.28;1.60;;;-0.40;94.90;;;;;;5011950;28;20115;-73
2021/01/25 01:12:20;;;;;;;2.20;1.02;;;-0.40;95.90;;;;;;5011583;28;20026;-73
2021/01/25 01:14:46;;;;;;;4.35;1.30;;;-0.30;94.40;;;;;;5012082;28;20132;-73
2021/01/25 01:17:12;;;;;;;3.25;1.10;;;-0.20;94.30;;;;;;5012035;28;20497;-73
2021/01/25 01:19:37;;;;;;;3.80;1.42;;;-0.30;95.00;;;;;;5012013;28;20061;-73
2021/01/25 01:22:03;;;;;;;3.20;1.13;;;-0.40;95.10;;;;;;5011932;28;20986;-73
2021/01/25 01:24:29;;;;;;;4.70;1.88;;;-0.40;95.60;;;;;;5011294;28;20018;-73
2021/01/25 01:26:54;;;;;;;2.72;0.90;;;-0.50;96.30;;;;;;5011365;28;20380;-73
2021/01/25 01:29:20;;;;;;;2.20;1.02;;;-0.50;95.90;;;;;;5012008;28;20030;-73
2021/01/25 01:31:46;;;;;;;2.38;0.90;;;-0.70;97.80;;;;;;5011807;28;20400;-73
2021/01/25 01:34:11;;;;;;;2.80;1.50;;;-0.80;98.10;;;;;;5011098;28;20076;-73
2021/01/25 01:36:37;;;;;;;4.55;1.42;;;-1.00;98.10;;;;;;5012122;28;20026;-73
2021/01/25 01:39:04;;;;;;;2.25;1.10;;;-0.90;97.90;;;;;;5011793;28;20030;-73
2021/01/25 01:41:37;;;;;;;4.07;1.13;;;-0.70;97.20;;;;;;5011549;28;20473;-73
2021/01/25 01:44:04;;;;;;;2.72;0.73;;;-0.70;97.40;;;;;;5010694;28;20404;-73
2021/01/25 01:46:31;;;;;;;2.33;1.25;;;-0.70;96.70;;;;;;5011603;28;20034;-73
2021/01/25 01:48:58;;;;;;;3.17;1.42;;;-0.60;96.10;;;;;;5011544;28;20026;-73
2021/01/25 01:51:24;;;;;;;2.88;1.52;;;-0.60;95.80;;;;;;5011472;28;20033;-73
2021/01/25 01:53:50;;;;;;;5.10;1.17;;;-0.50;95.40;;;;;;5009540;28;20509;-73
2021/01/25 01:56:16;;;;;;;2.33;1.02;;;-0.50;96.00;;;;;;5011401;28;20037;-73
2021/01/25 01:58:41;;;;;;;2.97;1.23;;;-0.60;97.20;;;;;;5011634;28;20022;-73
2021/01/25 02:01:07;;;;;;;4.43;1.70;;;-0.60;98.00;;;;;;5011305;28;20056;-73
2021/01/25 02:03:33;;;;;;;2.42;1.10;;;-0.70;97.90;;;;;;5011251;28;20119;-73
2021/01/25 02:06:00;;;;;;;2.63;1.20;;;-0.60;95.70;;;;;;5007648;28;20127;-74
2021/01/25 02:08:26;;;;;;;2.65;0.90;;;-0.60;95.50;;;;;;5009201;28;20045;-73
2021/01/25 02:10:56;;;;;;;4.82;1.38;;;-0.50;95.60;;;;;;5011166;28;20472;-73
2021/01/25 02:13:22;;;;;;;3.95;1.27;;;-0.50;95.40;;;;;;5011143;28;20037;-73
2021/01/25 02:15:51;;;;;;;2.13;1.00;;;-0.50;95.00;;;;;;5010987;28;20036;-74
2021/01/25 02:18:16;;;;;;;3.30;1.87;;;-0.40;94.70;;;;;;5010734;28;20033;-73
2021/01/25 02:20:44;;;;;;;2.00;0.93;;;-0.40;94.60;;;;;;5011148;28;20443;-73
2021/01/25 02:23:40;;;;;;;3.27;1.30;;;-0.60;94.70;;;;;;5010910;28;20046;-73
2021/01/25 02:26:15;;;;;;;1.80;1.00;;;-0.60;94.60;;;;;;5008860;28;20034;-73
2021/01/25 02:28:41;;;;;;;2.67;0.90;;;-0.50;94.80;;;;;;5008858;28;20041;-73
2021/01/25 02:31:09;;;;;;;2.40;0.90;;;-0.50;94.80;;;;;;5010153;28;20071;-74
2021/01/25 02:33:44;;;;;;;2.67;1.13;;;-0.60;94.80;;;;;;5009635;28;20057;-74
2021/01/25 02:36:10;;;;;;;;;;;-0.70;95.50;;;;;;5010940;28;20372;-74
2021/01/25 02:38:40;;;;;;;2.25;0.88;;;-0.60;94.80;;;;;;5010605;28;19921;-74
2021/01/25 02:41:08;;;;;;;2.17;0.87;;;-0.60;95.30;;;;;;5010224;28;20124;-74
2021/01/25 02:43:35;;;;;;;3.63;1.10;;;-0.50;94.90;;;;;;5009949;28;20127;-74
2021/01/25 02:46:01;;;;;;;1.60;0.70;;;-0.50;95.20;;;;;;5010887;28;20495;-74
2021/01/25 02:48:27;;;;;;;2.03;0.80;;;-0.60;94.70;;;;;;5010191;28;20026;-74
2021/01/25 02:50:53;;;;;;;1.38;0.70;;;-0.50;95.60;;;;;;5010467;28;20119;-74
2021/01/25 02:53:19;;;;;;;1.30;0.67;;;-0.60;96.40;;;;;;5010451;28;20073;-74
2021/01/25 02:55:46;;;;;;;2.50;0.80;;;-0.60;95.70;;;;;;5009805;28;20056;-73
2021/01/25 02:58:13;;;;;;;2.23;1.10;;;-0.50;95.60;;;;;;5009688;28;20030;-74
2021/01/25 03:00:40;;;;;;;1.77;0.90;;;-0.60;94.90;;;;;;5010074;28;20038;-74
2021/01/25 03:03:06;;;;;;;2.30;0.80;;;-0.60;94.30;;;;;;5010346;28;20034;-73
2021/01/25 03:05:32;;;;;;;2.10;0.68;;;-0.70;94.60;;;;;;5009984;28;20034;-73
2021/01/25 03:07:58;;;;;;;1.98;0.77;;;-0.60;95.00;;;;;;5010015;28;20047;-74
2021/01/25 03:10:24;;;;;;;2.47;0.90;;;-0.50;94.60;;;;;;5010108;28;20056;-73
2021/01/25 03:12:51;;;;;;;2.63;1.03;;;-0.60;94.70;;;;;;5009747;28;20053;-74
2021/01/25 03:15:18;;;;;;;1.80;0.77;;;-0.60;94.10;;;;;;5010161;28;20025;-74
2021/01/25 03:17:44;;;;;;;1.93;1.07;;;-0.60;94.30;;;;;;5009717;28;20061;-73
2021/01/25 03:20:10;;;;;;;2.38;0.70;;;-0.50;94.40;;;;;;5009901;28;20061;-74
2021/01/25 03:22:36;;;;;;;2.22;0.63;;;-0.50;94.00;;;;;;5010208;28;20052;-73
2021/01/25 03:25:04;;;;;;;1.53;0.80;;;-0.50;94.10;;;;;;5009513;28;20037;-74
2021/01/25 03:27:29;;;;;;;2.05;0.73;;;-0.40;94.00;;;;;;4989658;28;20445;-73
2021/01/25 03:29:55;;;;;;;1.33;0.67;;;-0.40;93.70;;;;;;5009517;28;20045;-74
2021/01/25 03:32:21;;;;;;;1.50;0.63;;;-0.40;93.90;;;;;;4990660;28;20034;-74
2021/01/25 03:34:47;;;;;;;2.40;0.90;;;-0.40;94.20;;;;;;4990075;28;20660;-74
2021/01/25 03:37:13;;;;;;;1.33;0.70;;;-0.40;93.70;;;;;;4989467;28;20034;-74
2021/01/25 03:39:38;;;;;;;1.40;0.50;;;-0.40;93.60;;;;;;4982878;28;20431;-74
2021/01/25 03:42:05;;;;;;;2.25;0.70;;;-0.40;93.40;;;;;;4989868;28;20034;-73
2021/01/25 03:44:31;;;;;;;3.30;0.93;;;-0.50;93.60;;;;;;4990136;28;20026;-74
2021/01/25 03:46:56;;;;;;;4.05;0.90;;;-0.40;93.70;;;;;;4989716;28;20113;-74
2021/01/25 03:49:22;;;;;;;1.47;0.57;;;-0.50;93.70;;;;;;4990003;28;20169;-73
2021/01/25 03:51:48;;;;;;;1.75;1.15;;;-0.50;93.80;;;;;;4989665;28;20030;-74
2021/01/25 03:54:14;;;;;;;1.65;0.65;;;-0.50;93.80;;;;;;4990073;28;20045;-72
2021/01/25 03:56:40;;;;;;;0.85;0.50;;;-0.50;93.90;;;;;;4989507;28;20397;-73
2021/01/25 03:59:07;;;;;;;1.63;0.80;;;-0.50;94.00;;;;;;4990087;28;20507;-73
2021/01/25 04:01:33;;;;;;;1.85;0.77;;;-0.40;93.50;;;;;;4988141;28;20520;-73
2021/01/25 04:03:58;;;;;;;1.53;0.70;;;-0.40;93.10;;;;;;4981771;28;20040;-73
2021/01/25 04:06:24;;;;;;;2.33;0.70;;;-0.40;93.10;;;;;;4983143;28;20034;-74
2021/01/25 04:08:50;;;;;;;1.40;0.50;;;-0.40;93.40;;;;;;4985391;28;20030;-73
2021/01/25 04:11:16;;;;;;;1.35;0.65;;;-0.30;93.60;;;;;;4986334;28;20117;-73
2021/01/25 04:13:42;;;;;;;1.33;0.67;;;-0.30;93.40;;;;;;4986662;28;20536;-73
2021/01/25 04:16:08;;;;;;;1.67;0.80;;;-0.30;94.30;;;;;;4985943;28;20033;-73
2021/01/25 04:18:34;;;;;;;2.83;0.90;;;-0.50;96.10;;;;;;4985799;28;20227;-73
2021/01/25 04:21:00;;;;;;;2.90;1.27;;;-0.40;96.60;;;;;;4985841;28;20026;-73
2021/01/25 04:23:25;;;;;;;1.53;0.73;;;-0.40;96.30;;;;;;4985766;28;20078;-73
2021/01/25 04:25:51;;;;;;;1.52;0.82;;;-0.50;96.60;;;;;;4980405;28;20523;-73
2021/01/25 04:28:17;;;;;;;1.83;1.00;;;-0.60;95.40;;;;;;4986112;28;20038;-73
2021/01/25 04:30:42;;;;;;;1.95;0.70;;;-0.60;95.70;;;;;;4984763;28;20093;-73
2021/01/25 04:33:08;;;;;;;2.03;0.95;;;-0.60;96.30;;;;;;5005552;28;20064;-73
2021/01/25 04:35:39;;;;;;;1.85;0.85;;;-0.70;97.30;;;;;;5005370;28;20022;-73
2021/01/25 04:38:06;;;;;;;1.58;0.63;;;-0.70;96.70;;;;;;5005522;28;20091;-73
2021/01/25 04:40:31;;;;;;;1.25;0.55;;;-0.80;96.20;;;;;;5005297;28;20026;-73
2021/01/25 04:42:58;;;;;;;3.03;1.48;;;-0.80;96.50;;;;;;5004714;28;20049;-73
2021/01/25 04:45:24;;;;;;;3.83;1.20;;;-0.90;97.80;;;;;;5005494;28;20018;-73
2021/01/25 04:47:51;;;;;;;2.67;1.13;;;-0.90;98.60;;;;;;5005944;28;20030;-74
2021/01/25 04:50:17;;;;;;;2.42;0.80;;;-1.10;99.50;;;;;;5005275;28;20033;-73
2021/01/25 04:52:45;;;;;;;2.67;1.00;;;-1.10;99.40;;;;;;5004355;28;20035;-73
2021/01/25 04:55:11;;;;;;;2.05;1.08;;;-1.10;98.20;;;;;;5005362;28;20704;-73
2021/01/25 04:57:38;;;;;;;1.58;0.52;;;-1.10;97.90;;;;;;5004714;28;20040;-73
2021/01/25 05:00:07;;;;;;;1.80;0.73;;;-1.20;97.10;;;;;;5005084;28;20029;-73
2021/01/25 05:02:35;;;;;;;2.33;0.80;;;-1.10;96.70;;;;;;5005068;28;20041;-73
2021/01/25 05:05:02;;;;;;;1.58;0.80;;;-0.90;95.90;;;;;;5004982;28;20032;-73
2021/01/25 05:07:28;;;;;;;2.17;0.70;;;-0.90;95.80;;;;;;4990256;28;20556;-73
2021/01/25 05:09:54;;;;;;;2.25;0.80;;;-0.90;95.40;;;;;;5005228;28;20033;-73
2021/01/25 05:12:19;;;;;;;0.93;0.50;;;-0.80;94.80;;;;;;5005321;28;20033;-73
2021/01/25 05:14:45;;;;;;;0.60;0.40;;;-0.70;94.90;;;;;;5004747;28;20516;-73
2021/01/25 05:17:12;;;;;;;2.13;0.50;;;-0.70;95.10;;;;;;5004795;28;20034;-73
2021/01/25 05:19:39;;;;;;;1.73;0.77;;;-0.70;94.60;;;;;;5004101;28;20028;-73
2021/01/25 05:22:19;;;;;;;2.08;0.68;;;-0.70;94.70;;;;;;5005051;28;20026;-73
2021/01/25 05:24:49;;;;;;;1.40;0.60;;;-1.00;94.80;;;;;;5004087;28;20058;-74
2021/01/25 05:27:25;;;;;;;2.80;0.80;;;-1.00;95.30;;;;;;5004545;28;20097;-73
2021/01/25 05:29:52;;;;;;;2.57;0.90;;;-1.00;95.30;;;;;;5004180;28;20044;-73
2021/01/25 05:32:19;;;;;;;1.43;0.80;;;-1.10;97.40;;;;;;5004609;28;20060;-74
2021/01/25 05:34:48;;;;;;;2.83;0.97;;;-1.10;96.90;;;;;;5004722;28;20165;-73
2021/01/25 05:37:18;;;;;;;2.17;0.95;;;-1.40;99.40;;;;;;5004908;28;20064;-73
2021/01/25 05:39:48;;;;;;;5.47;2.30;;;-1.30;98.10;;;;;;5004343;28;20512;-73
2021/01/25 05:42:14;;;;;;;2.23;1.00;;;-1.30;98.10;;;;;;5004355;28;20080;-73
2021/01/25 05:44:41;;;;;;;2.03;0.90;;;-1.30;97.40;;;;;;5004757;28;20084;-73
2021/01/25 05:47:08;;;;;;;3.63;0.67;;;-1.30;96.40;;;;;;5004266;28;20026;-73
2021/01/25 05:49:35;;;;;;;1.65;0.80;;;-1.10;96.10;;;;;;5003718;28;20022;-73
2021/01/25 05:52:00;;;;;;;1.85;0.70;;;-1.10;96.10;;;;;;5004502;28;20044;-73
2021/01/25 05:54:26;;;;;;;4.80;0.70;;;-1.20;95.50;;;;;;5004517;28;20018;-73
2021/01/25 05:56:53;;;;;;;2.25;0.70;;;-1.20;95.60;;;;;;5004293;28;20134;-73
2021/01/25 05:59:19;;;;;;;2.25;0.70;;;-1.10;95.80;;;;;;5002438;28;20026;-73
2021/01/25 06:01:49;;;;;;;2.60;1.00;;;-1.10;96.10;;;;;;5003968;28;20034;-73
2021/01/25 06:04:21;;;;;;;2.00;0.60;;;-1.30;96.00;;;;;;5003613;28;20044;-73
2021/01/25 06:07:07;;;;;;;2.30;0.80;;;-1.30;96.00;;;;;;5002698;28;20041;-73
2021/01/25 06:09:53;;;;;;;3.13;0.90;;;-1.40;97.80;;;;;;5003542;28;20030;-73
2021/01/25 06:12:38;;;;;;;4.10;0.93;;;-1.40;96.20;;;;;;5003955;28;20132;-73
2021/01/25 06:15:08;;;;;;;2.60;0.85;;;-1.40;96.00;;;;;;5003376;28;20022;-73
2021/01/25 06:17:35;;;;;;;2.03;0.80;;;-1.30;96.00;;;;;;5003386;28;20021;-74
2021/01/25 06:20:06;;;;;;;1.90;0.73;;;-1.20;95.90;;;;;;5003888;28;20038;-73
2021/01/25 06:22:34;;;;;;;1.73;0.80;;;-1.30;95.60;;;;;;5002498;28;20034;-74
2021/01/25 06:25:01;;;;;;;1.30;0.77;;;-1.40;96.40;;;;;;5003772;28;20491;-73
2021/01/25 06:27:28;;;;;;;1.37;0.60;;;-1.40;96.20;;;;;;5003755;28;20030;-73
2021/01/25 06:29:54;;;;;;;3.57;1.07;;;-1.30;95.80;;;;;;5007906;28;20069;-72
2021/01/25 06:32:19;;;;;;;3.53;1.10;;;-1.20;95.90;;;;;;5003958;28;20914;-74
2021/01/25 06:34:45;;;;;;;4.63;1.00;;;-1.40;96.80;;;;;;5004238;28;20030;-74
2021/01/25 06:37:13;;;;;;;8.93;4.83;;;-1.60;97.90;;;;;;5000806;28;20439;-74
2021/01/25 06:39:45;;;;;;;5.07;2.38;;;-1.50;98.30;;;;;;5002178;28;20041;-74
2021/01/25 06:42:16;;;;;;;3.70;1.77;;;-1.40;97.70;;;;;;5003356;28;20140;-74
2021/01/25 06:47:48;;;;;;;7.25;1.83;;;-1.40;97.90;;;;;;5001602;28;20057;-74
2021/01/25 06:50:14;;;;;;;3.60;1.40;;;-1.50;98.70;;;;;;5002650;28;20026;-74
2021/01/25 06:52:40;;;;;;;5.50;1.17;;;-1.60;98.10;;;;;;5002347;28;20033;-74
2021/01/25 06:55:09;;;;;;;3.60;1.40;;;-1.40;96.60;;;;;;5002673;28;20053;-74
2021/01/25 06:57:36;;;;;;;1.93;0.93;;;-1.30;96.70;;;;;;5002890;28;20061;-75
2021/01/25 07:00:10;;;;;;;2.50;1.10;;;-1.30;96.80;;;;;;5001531;28;20036;-76
2021/01/25 07:02:52;;;;;;;4.73;1.03;;;-1.30;97.00;;;;;;5003142;28;20569;-75
2021/01/25 07:05:24;;;;;;;2.80;1.13;;;-1.20;96.80;;;;;;5002157;28;20049;-75
2021/01/25 07:07:50;;;;;;;2.20;1.17;;;-1.20;96.20;;;;;;4995956;28;20098;-75
2021/01/25 07:10:16;;;;;;;3.00;0.87;;;-1.20;96.10;;;;;;5002045;28;20083;-76
2021/01/25 07:12:45;;;;;;;3.70;1.27;;;-1.20;95.90;;;;;;5002338;28;20395;-75
2021/01/25 07:15:11;;;;;;;2.40;1.07;;;-1.20;96.10;;;;;;5002821;28;20033;-76
2021/01/25 07:17:37;;;;;;;1.83;0.80;;;-1.20;95.80;;;;;;5001627;28;20068;-76
2021/01/25 07:20:05;;;;;;;3.07;1.03;;;-1.20;96.00;;;;;;5003083;28;20058;-75
2021/01/25 07:22:36;;;;;;;3.20;1.27;;;-1.20;95.80;;;;;;4997284;28;20038;-75
2021/01/25 07:25:01;;;;;;;2.22;0.88;;;-1.20;95.70;;;;;;4994648;28;20045;-75
2021/01/25 07:27:34;;;;;;;2.93;1.30;;;-1.20;96.10;;;;;;5001089;28;20064;-74
2021/01/25 07:30:00;;;;;;;4.47;1.00;;;-1.20;95.70;;;;;;5002304;28;20378;-75
2021/01/25 07:32:26;;;;;;;4.03;1.10;;;-1.10;95.80;;;;;;5002275;28;20037;-75
2021/01/25 07:34:55;;;;;;;2.72;1.15;;;-1.30;95.60;;;;;;5003049;28;20036;-75
2021/01/25 07:37:21;;;;;;;2.03;1.00;;;-1.20;95.40;;;;;;5002489;28;20025;-76
2021/01/25 07:39:47;;;;;;;2.40;0.90;;;-1.10;95.40;;;;;;5002341;28;20041;-75
2021/01/25 07:42:13;;;;;;;2.50;1.00;;;-1.10;95.10;;;;;;5001472;28;20056;-75
2021/01/25 07:44:38;;;;;;;4.38;0.90;;;-1.00;95.20;;;;;;5003881;28;20108;-75
2021/01/25 07:47:04;;;;;;;1.60;0.77;;;-1.10;95.10;;;;;;5001898;28;20030;-75
2021/01/25 07:49:30;;;;;;;3.33;0.93;;;-1.10;95.20;;;;;;5001775;28;20389;-73
2021/01/25 07:51:56;;;;;;;2.60;1.05;;;-1.10;95.50;;;;;;5001586;28;20030;-73
2021/01/25 07:54:24;;;;;;;3.87;1.73;;;-0.90;95.30;;;;;;5000142;28;20502;-74
2021/01/25 07:56:49;;;;;;;5.03;1.53;;;-0.80;94.80;;;;;;5002066;28;20113;-75
2021/01/25 07:59:18;;;;;;;8.90;1.48;;;-0.90;95.20;;;;;;5002303;28;20124;-73
2021/01/25 08:02:03;;;;;;;5.20;1.45;;;-0.90;94.40;;;;;;5001722;28;20109;-73
2021/01/25 08:04:36;;;;;;;3.38;1.20;;;-0.80;95.00;;;;;;5001868;28;20487;-74
2021/01/25 08:07:02;;;;;;;2.30;0.87;;;-0.70;94.70;;;;;;5001623;28;20492;-73
2021/01/25 08:09:29;;;;;;;1.10;0.80;;;-0.80;94.30;;;;;;4993130;28;20025;-73
2021/01/25 08:11:55;;;;;;;6.60;1.70;;;-0.90;94.30;;;;;;5002108;28;20076;-74
2021/01/25 08:14:37;;;;;;;2.83;1.40;;;-0.80;94.60;;;;;;5001569;28;20092;-73
2021/01/25 08:17:07;;;;;;;7.53;2.30;;;-0.80;94.20;;;;;;5002372;28;20088;-73
2021/01/25 08:19:54;;;;;;;2.23;1.07;;;-0.60;94.90;;;;;;5002607;28;20113;-74
2021/01/25 08:22:43;;;;;;;3.43;1.20;;;-0.60;94.60;;;;;;5002718;28;20037;-74
2021/01/25 08:25:16;;;;;;;16.15;8.55;;;-0.70;94.50;;;;;;5002667;28;20026;-73
2021/01/25 08:27:52;;;;;;;2.40;1.20;;;-0.50;94.80;;;;;;4984049;28;20617;-73
2021/01/25 08:30:22;;;;;;;3.40;0.98;;;-0.60;94.90;;;;;;4997425;28;20543;-73
2021/01/25 08:32:51;;;;;;;3.57;0.80;;;-0.60;94.40;;;;;;5002834;28;20042;-74
2021/01/25 08:35:34;;;;;;;10.18;5.38;;;-0.40;94.60;;;;;;5003022;28;20168;-74
2021/01/25 08:38:17;;;;;;;5.20;2.23;;;-0.30;95.00;;;;;;5005119;28;20061;-74
2021/01/25 08:40:43;;;;;;;2.60;1.25;;;-0.30;94.90;;;;;;5006121;28;20565;-75
2021/01/25 08:43:24;;;;;;;3.30;1.42;;;-0.50;95.30;;;;;;5003299;28;20046;-74
2021/01/25 08:45:51;;;;;;;5.38;1.33;;;-0.60;94.90;;;;;;5000564;28;20026;-76
2021/01/25 08:48:31;;;;;;;3.55;1.35;;;-0.40;94.90;;;;;;5000955;28;20030;-76
2021/01/25 08:51:09;;;;;;;3.50;1.20;;;-0.40;94.50;;;;;;5001271;28;20030;-75
2021/01/25 08:53:35;;;;;;;3.08;1.50;;;-0.30;94.20;;;;;;5002261;28;20190;-74
2021/01/25 08:56:13;;;;;;;3.30;1.17;;;-0.30;95.00;;;;;;5005876;28;20033;-75
2021/01/25 08:58:39;;;;;;;3.35;1.30;;;-0.40;94.70;;;;;;5006260;28;20030;-76
2021/01/25 09:01:28;;;;;;;5.22;1.40;;;-0.40;94.30;;;;;;5006527;28;20037;-75
2021/01/25 09:03:57;;;;;;;3.03;1.25;;;-0.40;94.20;;;;;;5006721;28;20049;-74
2021/01/25 09:06:23;;;;;;;2.63;1.33;;;-0.10;95.10;;;;;;4993333;28;20042;-74
2021/01/25 09:08:48;;;;;;;1.77;0.77;;;-0.20;93.30;;;;;;4992220;28;20357;-77
2021/01/25 09:11:14;;;;;;;2.60;1.17;;;-0.40;93.50;;;;;;5004161;28;20046;-73
2021/01/25 09:13:40;;;;;;;3.20;1.37;;;-0.40;93.40;;;;;;5005158;28;20050;-74
2021/01/25 09:16:05;;;;;;;4.45;1.38;;;-0.20;93.40;;;;;;5003825;28;20029;-74
2021/01/25 09:18:31;;;;;;;2.05;0.90;;;-0.30;92.90;;;;;;5004989;28;20026;-75
2021/01/25 09:20:57;;;;;;;1.17;0.60;;;-0.30;92.80;;;;;;4999977;28;20475;-74
2021/01/25 09:23:23;;;;;;;4.47;1.08;;;-0.30;93.00;;;;;;5005313;28;20597;-75
2021/01/25 09:25:48;;;;;;;2.90;0.95;;;-0.10;92.80;;;;;;5005147;28;20104;-75
2021/01/25 09:28:15;;;;;;;1.73;0.98;;;-0.10;92.40;;;;;;5004739;28;20033;-75
2021/01/25 09:30:41;;;;;;;4.57;1.25;;;0.00;92.90;;;;;;5003760;28;20057;-75
2021/01/25 09:33:07;;;;;;;2.53;1.17;;;0.00;93.10;;;;;;5004781;28;20542;-75
2021/01/25 09:35:32;;;;;;;3.90;1.53;;;0.10;93.10;;;;;;5004824;28;20030;-75
2021/01/25 09:37:59;;;;;;;3.22;1.10;;;0.20;93.60;;;;;;4994613;28;20058;-74
2021/01/25 09:40:26;;;;;;;4.72;1.40;;;0.30;93.40;;;;;;5005448;28;20033;-75
2021/01/25 09:42:51;;;;;;;2.53;0.73;;;0.30;92.30;;;;;;5005042;28;20080;-75
2021/01/25 09:45:18;;;;;;;6.28;1.40;;;0.30;93.20;;;;;;5005411;28;20034;-74
2021/01/25 09:47:44;;;;;;;4.25;1.50;;;0.20;94.20;;;;;;5004020;28;20629;-74
2021/01/25 09:50:13;;;;;;;2.92;1.60;;;0.00;94.20;;;;;;5003428;28;20054;-75
2021/01/25 09:52:40;;;;;;;4.80;1.25;;;0.10;94.30;;;;;;4999378;28;20406;-73
2021/01/25 09:55:07;;;;;;;5.60;2.75;;;0.30;92.40;;;;;;5004513;28;20065;-74
2021/01/25 09:57:33;;;;;;;6.30;2.25;;;0.50;92.90;;;;;;5004242;28;20029;-74
2021/01/25 09:59:59;;;;;;;4.00;1.88;;;0.80;93.20;;;;;;5004668;28;20057;-74
2021/01/25 10:02:25;;;;;;;3.25;1.50;;;0.60;93.40;;;;;;5005628;28;20725;-74
2021/01/25 10:04:50;;;;;;;3.30;1.25;;;0.50;93.50;;;;;;5002771;28;20037;-74
2021/01/25 10:07:16;;;;;;;8.13;1.55;;;0.50;92.80;;;;;;4993454;28;20044;-75
2021/01/25 10:09:42;;;;;;;5.07;2.13;;;0.60;92.80;;;;;;5003652;28;20125;-74
2021/01/25 10:12:08;;;;;;;1.52;1.08;;;0.60;92.50;;;;;;5003035;28;20034;-73
2021/01/25 10:14:33;;;;;;;4.32;1.10;;;0.70;91.40;;;;;;5010024;28;20523;-73
2021/01/25 10:16:59;;;;;;;2.55;1.25;;;0.70;91.60;;;;;;5003798;28;20060;-73
2021/01/25 10:19:25;;;;;;;2.58;1.30;;;0.70;91.20;;;;;;5003648;28;20033;-73
2021/01/25 10:21:51;;;;;;;2.60;1.33;;;0.90;91.10;;;;;;5004393;28;20041;-74
2021/01/25 10:24:17;;;;;;;5.25;1.10;;;0.70;90.20;;;;;;5004715;28;20044;-73
2021/01/25 10:26:42;;;;;;;3.20;1.00;;;0.80;91.20;;;;;;5002202;28;20053;-73
2021/01/25 10:29:08;;;;;;;2.53;1.00;;;1.00;90.50;;;;;;5003675;28;20485;-73
2021/01/25 10:31:34;;;;;;;2.53;1.10;;;1.10;90.80;;;;;;5003265;28;20524;-74
2021/01/25 10:33:59;;;;;;;2.50;0.77;;;1.20;90.10;;;;;;5003442;28;20636;-73
2021/01/25 10:36:26;;;;;;;1.67;1.10;;;1.20;90.60;;;;;;5003495;28;20026;-73
2021/01/25 10:38:52;;;;;;;3.15;1.30;;;1.10;91.60;;;;;;5003944;28;20673;-73
2021/01/25 10:41:20;;;;;;;6.18;1.45;;;1.00;92.40;;;;;;5002769;28;20029;-73
2021/01/25 10:43:45;;;;;;;2.55;1.10;;;1.10;92.20;;;;;;5004304;28;20060;-73
2021/01/25 10:46:14;;;;;;;8.68;1.50;;;1.10;91.60;;;;;;4995496;28;20556;-72
2021/01/25 10:48:39;;;;;;;4.32;1.33;;;1.10;90.80;;;;;;4991227;28;20034;-73
2021/01/25 10:51:05;;;;;;;1.65;0.70;;;1.20;90.50;;;;;;4988936;28;20178;-73
2021/01/25 10:53:31;;;;;;;6.25;1.27;;;1.30;89.70;;;;;;4994246;28;20037;-72
2021/01/25 10:55:56;;;;;;;2.78;1.10;;;1.30;91.70;;;;;;5010566;28;20025;-72
2021/01/25 10:58:22;;;;;;;3.60;1.55;;;1.40;90.60;;;;;;5010786;28;20034;-71
2021/01/25 11:00:50;;;;;;;2.63;1.35;;;1.80;91.80;;;;;;5006728;28;20057;-71
2021/01/25 11:03:15;;;;;;;5.05;1.45;;;1.60;91.50;;;;;;5002934;28;20034;-70
2021/01/25 11:05:41;;;;;;;5.28;2.53;;;1.70;91.90;;;;;;5002767;28;20041;-70
2021/01/25 11:08:07;;;;;;;7.10;2.72;;;1.90;91.90;;;;;;5002896;28;20018;-70
2021/01/25 11:10:32;;;;;;;17.33;8.77;;;1.90;92.20;;;;;;5004311;28;20532;-70
2021/01/25 11:12:58;;;;;;;7.25;2.40;;;1.90;91.70;;;;;;5001577;28;20221;-72
2021/01/25 11:15:24;;;;;;;3.05;1.40;;;1.80;92.50;;;;;;4997069;28;20037;-72
2021/01/25 11:17:50;;;;;;;5.13;1.75;;;1.50;91.40;;;;;;5002320;28;20037;-72
2021/01/25 11:20:16;;;;;;;5.47;1.60;;;1.40;91.90;;;;;;5003877;28;20033;-70
2021/01/25 11:22:42;;;;;;;3.33;1.52;;;1.40;91.60;;;;;;5003373;28;20129;-70
2021/01/25 11:25:09;;;;;;;3.45;1.60;;;1.60;91.10;;;;;;4999784;28;20113;-72
2021/01/25 11:27:34;;;;;;;2.50;1.60;;;1.70;91.90;;;;;;5003135;28;20041;-71
2021/01/25 11:30:00;;;;;;;4.22;1.63;;;1.70;91.00;;;;;;5003147;28;20030;-72
2021/01/25 11:32:26;;;;;;;4.22;1.58;;;1.60;91.20;;;;;;5003814;28;20033;-72
2021/01/25 11:34:52;;;;;;;3.58;1.70;;;1.70;91.70;;;;;;5003431;28;20515;-72
2021/01/25 11:37:18;;;;;;;6.15;1.90;;;1.70;91.30;;;;;;5003725;28;20052;-72
2021/01/25 11:39:45;;;;;;;4.22;1.83;;;1.50;90.90;;;;;;5003715;28;20022;-72
2021/01/25 11:42:11;;;;;;;3.75;1.65;;;1.70;90.90;;;;;;4998992;28;20026;-71
2021/01/25 11:44:37;;;;;;;3.08;1.35;;;1.70;91.10;;;;;;4995540;28;20069;-71
2021/01/25 11:47:03;;;;;;;2.75;1.48;;;1.80;89.50;;;;;;5002251;28;20061;-71
2021/01/25 11:49:28;;;;;;;3.53;1.33;;;1.80;90.10;;;;;;5001933;28;20034;-71
2021/01/25 11:51:54;;;;;;;2.33;1.20;;;1.90;88.30;;;;;;5003748;28;20129;-70
2021/01/25 11:54:20;;;;;;;4.45;1.70;;;2.10;89.50;;;;;;5002977;28;20065;-69
2021/01/25 11:56:46;;;;;;;2.67;1.30;;;2.10;88.90;;;;;;5002153;28;20735;-71
2021/01/25 11:59:11;;;;;;;2.25;0.90;;;2.20;88.50;;;;;;5003798;28;21059;-70
2021/01/25 12:01:37;;;;;;;2.03;1.20;;;2.20;87.90;;;;;;5003766;28;20036;-71
2021/01/25 12:04:04;;;;;;;1.65;0.85;;;2.00;89.20;;;;;;4998076;28;20041;-70
2021/01/25 12:06:30;;;;;;;3.00;1.05;;;2.00;87.30;;;;;;5000731;28;20108;-71
2021/01/25 12:08:56;;;;;;;2.58;0.80;;;2.00;85.40;;;;;;5002750;28;20229;-71
2021/01/25 12:11:22;;;;;;;2.60;1.02;;;2.10;86.80;;;;;;5003222;28;20025;-72
2021/01/25 12:13:47;;;;;;;2.00;0.80;;;2.00;85.80;;;;;;5001595;28;20033;-72
2021/01/25 12:16:15;;;;;;;2.95;1.05;;;1.80;84.80;;;;;;5001013;28;20038;-72
2021/01/25 12:18:45;;;;;;;3.40;0.85;;;1.80;83.80;;;;;;5001554;28;20180;-72
2021/01/25 12:21:12;;;;;;;2.60;0.80;;;2.00;84.90;;;;;;5002668;28;20443;-72
2021/01/25 12:23:38;;;;;;;4.28;1.48;;;1.80;82.60;;;;;;5002652;28;20064;-72
2021/01/25 12:26:05;;;;;;;1.38;0.70;;;1.90;84.60;;;;;;5002209;28;20159;-72
2021/01/25 12:28:31;;;;;;;1.98;1.00;;;1.70;84.40;;;;;;5004418;28;20558;-71
2021/01/25 12:30:59;;;;;;;3.03;1.02;;;1.80;82.50;;;;;;5005656;28;20124;-72
2021/01/25 12:33:25;;;;;;;2.95;1.02;;;1.80;83.10;;;;;;5006375;28;20030;-72
2021/01/25 12:35:50;;;;;;;2.17;1.10;;;2.00;85.50;;;;;;5004245;28;20026;-72
2021/01/25 12:38:16;;;;;;;2.25;0.80;;;2.00;83.90;;;;;;5005614;28;20108;-72
2021/01/25 12:40:42;;;;;;;2.75;1.10;;;2.10;84.20;;;;;;4998887;28;20150;-72
2021/01/25 12:43:07;;;;;;;2.90;1.10;;;1.90;85.40;;;;;;4990521;28;20085;-72
2021/01/25 12:45:33;;;;;;;1.05;0.80;;;1.80;83.70;;;;;;5006418;28;20064;-72
2021/01/25 12:47:59;;;;;;;2.38;1.13;;;1.80;86.30;;;;;;5005638;28;20582;-72
2021/01/25 12:50:24;;;;;;;2.58;1.13;;;1.80;85.20;;;;;;5005243;28;20154;-72
2021/01/25 12:52:50;;;;;;;1.88;0.90;;;1.80;85.00;;;;;;5005914;28;20036;-72
2021/01/25 12:55:16;;;;;;;3.42;1.48;;;1.80;85.00;;;;;;5005943;28;20034;-71